createdAt,value
2023-02-01T00:01:23.739Z,3.30
2023-02-01T00:06:28.048Z,2.47
2023-02-01T00:11:30.965Z,2.67
2023-02-01T00:16:34.472Z,2.28
2023-02-01T00:21:38.819Z,3.17
2023-02-01T00:26:43.715Z,1.95
2023-02-01T00:31:47.103Z,2.08
2023-02-01T00:36:51.379Z,2.22
2023-02-01T00:41:54.189Z,2.60
2023-02-01T00:46:57.021Z,2.22
2023-02-01T00:52:01.311Z,2.40
2023-02-01T00:57:04.148Z,2.03
2023-02-01T01:02:06.999Z,2.55
2023-02-01T01:07:11.195Z,2.00
2023-02-01T01:12:14.067Z,2.20
2023-02-01T01:17:16.902Z,1.67
2023-02-01T01:22:21.107Z,2.53
2023-02-01T01:27:25.991Z,1.88
2023-02-01T01:32:28.804Z,1.92
2023-02-01T01:37:34.018Z,2.53
2023-02-01T01:42:39.957Z,2.70
2023-02-01T01:47:46.388Z,1.50
2023-02-01T01:52:52.504Z,1.92
2023-02-01T01:58:01.734Z,2.63
2023-02-01T02:03:13.657Z,2.10
2023-02-01T02:08:21.194Z,1.92
2023-02-01T02:13:24.855Z,1.48
2023-02-01T02:18:33.708Z,2.22
2023-02-01T02:24:09.243Z,1.83
2023-02-01T02:29:46.616Z,3.30
2023-02-01T02:34:57.338Z,1.73
2023-02-01T02:40:09.868Z,1.52
2023-02-01T02:45:45.077Z,2.03
2023-02-01T02:51:13.537Z,1.52
2023-02-01T02:56:34.711Z,2.03
2023-02-01T03:01:57.536Z,1.42
2023-02-01T03:07:14.814Z,1.90
2023-02-01T03:12:36.052Z,2.40
2023-02-01T03:17:42.594Z,2.40
2023-02-01T03:22:50.727Z,1.75
2023-02-01T03:27:56.883Z,1.55
2023-02-01T03:33:02.506Z,1.73
2023-02-01T03:38:14.723Z,1.65
2023-02-01T03:43:20.839Z,1.70
2023-02-01T03:48:25.357Z,1.63
2023-02-01T03:53:31.262Z,1.63
2023-02-01T03:58:34.201Z,1.40
2023-02-01T04:03:37.021Z,2.13
2023-02-01T04:08:41.222Z,1.60
2023-02-01T04:13:44.209Z,2.03
2023-02-01T04:18:47.056Z,1.52
2023-02-01T04:23:51.631Z,1.27
2023-02-01T04:28:54.612Z,1.52
2023-02-01T04:33:58.627Z,1.80
2023-02-01T04:39:02.837Z,1.55
2023-02-01T04:44:05.944Z,1.27
2023-02-01T04:49:10.339Z,1.27
2023-02-01T04:54:14.481Z,1.17
2023-02-01T04:59:17.313Z,1.70
2023-02-01T05:04:20.461Z,1.88
2023-02-01T05:09:24.745Z,2.00
2023-02-01T05:14:27.612Z,1.13
2023-02-01T05:19:30.546Z,1.63
2023-02-01T05:24:34.745Z,1.15
2023-02-01T05:29:37.637Z,2.00
2023-02-01T05:34:40.442Z,0.80
2023-02-01T05:39:44.589Z,1.65
2023-02-01T05:44:47.490Z,1.27
2023-02-01T05:49:50.369Z,1.23
2023-02-01T05:54:54.616Z,1.50
2023-02-01T05:59:58.636Z,1.67
2023-02-01T06:05:02.383Z,1.77
2023-02-01T06:10:07.564Z,0.90
2023-02-01T06:15:11.339Z,1.30
2023-02-01T06:20:16.043Z,1.13
2023-02-01T06:25:21.898Z,1.63
2023-02-01T06:30:25.176Z,1.67
2023-02-01T06:35:28.301Z,1.10
2023-02-01T06:40:32.469Z,1.40
2023-02-01T06:45:35.373Z,1.67
2023-02-01T06:50:38.296Z,1.48
2023-02-01T06:55:42.482Z,1.05
2023-02-01T07:00:45.364Z,1.17
2023-02-01T07:05:48.201Z,1.10
2023-02-01T07:10:52.358Z,1.73
2023-02-01T07:15:55.198Z,1.08
2023-02-01T07:20:58.395Z,2.13
2023-02-01T07:26:05.080Z,0.80
2023-02-01T07:31:09.973Z,1.40
2023-02-01T07:36:15.620Z,0.90
2023-02-01T07:41:20.123Z,1.20
2023-02-01T07:46:23.264Z,1.02
2023-02-01T07:51:26.135Z,0.90
2023-02-01T07:56:30.389Z,0.90
2023-02-01T08:01:33.267Z,1.50
2023-02-01T08:06:36.442Z,1.10
2023-02-01T08:11:40.761Z,3.53
2023-02-01T08:16:43.635Z,2.63
2023-02-01T08:21:47.521Z,2.63
2023-02-01T08:26:51.757Z,2.13
2023-02-01T08:31:55.251Z,1.77
2023-02-01T08:37:00.896Z,1.25
2023-02-01T08:42:22.496Z,1.60
2023-02-01T08:47:25.475Z,5.25
2023-02-01T08:52:28.566Z,4.05
2023-02-01T08:57:32.855Z,5.65
2023-02-01T09:02:35.718Z,9.75
2023-02-01T09:07:39.593Z,6.35
2023-02-01T09:12:43.820Z,5.80
2023-02-01T09:17:46.725Z,7.53
2023-02-01T09:22:49.627Z,4.70
2023-02-01T09:27:53.845Z,7.00
2023-02-01T09:32:56.735Z,5.15
2023-02-01T09:37:59.591Z,5.15
2023-02-01T09:43:20.732Z,5.43
2023-02-01T09:48:30.154Z,2.95
2023-02-01T09:53:37.227Z,5.43
2023-02-01T09:58:46.613Z,4.50
2023-02-01T10:03:50.428Z,3.42
2023-02-01T10:09:10.411Z,3.90
2023-02-01T10:14:31.626Z,3.20
2023-02-01T10:19:44.906Z,3.88
2023-02-01T10:24:58.017Z,3.60
2023-02-01T10:30:08.766Z,2.33
2023-02-01T10:35:17.436Z,2.70
2023-02-01T10:40:23.673Z,4.03
2023-02-01T10:45:30.839Z,3.05
2023-02-01T10:50:40.168Z,4.53
2023-02-01T10:55:50.274Z,2.50
2023-02-01T11:00:58.721Z,3.08
2023-02-01T11:06:02.579Z,2.70
2023-02-01T11:11:06.926Z,2.72
2023-02-01T11:16:15.637Z,3.50
2023-02-01T11:21:18.509Z,2.22
2023-02-01T11:26:25.273Z,2.35
2023-02-01T11:31:31.028Z,2.85
2023-02-01T11:36:35.866Z,2.45
2023-02-01T11:41:44.510Z,1.45
2023-02-01T11:46:48.758Z,2.15
2023-02-01T11:52:10.278Z,2.75
2023-02-01T11:57:27.282Z,2.30
2023-02-01T12:03:02.647Z,1.75
2023-02-01T12:08:29.922Z,2.58
2023-02-01T12:13:50.833Z,3.15
2023-02-01T12:19:20.240Z,2.70
2023-02-01T12:24:48.083Z,2.83
2023-02-01T12:30:03.235Z,1.00
2023-02-01T12:35:38.580Z,2.40
2023-02-01T12:40:55.463Z,2.10
2023-02-01T12:46:00.939Z,1.45
2023-02-01T12:51:09.860Z,1.02
2023-02-01T12:56:16.390Z,1.55
2023-02-01T13:01:24.401Z,1.63
2023-02-01T13:06:34.840Z,1.50
2023-02-01T13:11:40.985Z,1.15
2023-02-01T13:16:46.733Z,1.10
2023-02-01T13:21:55.803Z,1.00
2023-02-01T13:26:58.922Z,1.40
2023-02-01T13:32:18.280Z,1.50
2023-02-01T13:37:35.667Z,2.20
2023-02-01T13:42:48.899Z,1.83
2023-02-01T13:47:54.785Z,1.35
2023-02-01T13:53:01.233Z,0.80
2023-02-01T13:58:11.887Z,1.67
2023-02-01T14:03:18.889Z,1.15
2023-02-01T14:08:40.170Z,2.35
2023-02-01T14:13:43.551Z,1.75
2023-02-01T14:19:02.068Z,1.27
2023-02-01T14:24:18.578Z,1.23
2023-02-01T14:29:32.364Z,1.17
2023-02-01T14:34:44.190Z,1.42
2023-02-01T14:39:59.403Z,1.40
2023-02-01T14:45:35.845Z,1.80
2023-02-01T14:50:42.118Z,1.10
2023-02-01T14:55:50.223Z,0.85
2023-02-01T15:00:56.740Z,1.45
2023-02-01T15:06:01.768Z,1.60
2023-02-01T15:11:12.905Z,1.00
2023-02-01T15:16:17.000Z,1.55
2023-02-01T15:21:28.541Z,0.80
2023-02-01T15:26:35.452Z,1.48
2023-02-01T15:31:41.657Z,0.85
2023-02-01T15:36:56.873Z,1.27
2023-02-01T15:42:16.459Z,1.67
2023-02-01T15:47:20.816Z,1.20
2023-02-01T15:52:28.856Z,0.98
2023-02-01T15:57:37.161Z,1.70
2023-02-01T16:02:45.352Z,2.35
2023-02-01T16:07:58.782Z,1.20
2023-02-01T16:13:02.943Z,1.17
2023-02-01T16:18:06.134Z,2.47
2023-02-01T16:23:10.398Z,1.50
2023-02-01T16:28:14.688Z,1.10
2023-02-01T16:33:22.739Z,1.08
2023-02-01T16:38:25.804Z,1.23
2023-02-01T16:43:30.259Z,1.45
2023-02-01T16:48:36.134Z,1.92
2023-02-01T16:53:53.375Z,0.70
2023-02-01T16:58:58.571Z,0.80
2023-02-01T17:04:01.503Z,2.00
2023-02-01T17:09:05.204Z,1.63
2023-02-01T17:14:20.968Z,1.67
2023-02-01T17:19:25.371Z,1.70
2023-02-01T17:24:42.478Z,1.02
2023-02-01T17:29:53.798Z,1.70
2023-02-01T17:34:58.351Z,2.28
2023-02-01T17:40:01.716Z,1.70
2023-02-01T17:45:28.477Z,2.05
2023-02-01T17:50:33.824Z,2.78
2023-02-01T17:55:38.708Z,1.63
2023-02-01T18:00:43.847Z,3.58
2023-02-01T18:05:50.997Z,2.58
2023-02-01T18:10:56.044Z,1.77
2023-02-01T18:16:01.955Z,1.35
2023-02-01T18:21:05.236Z,1.17
2023-02-01T18:26:12.106Z,2.05
2023-02-01T18:31:23.703Z,2.30
2023-02-01T18:36:27.502Z,5.13
2023-02-01T18:41:30.377Z,5.60
2023-02-01T18:46:34.559Z,4.47
2023-02-01T18:51:37.431Z,3.58
2023-02-01T18:56:40.650Z,3.38
2023-02-01T19:01:45.073Z,3.40
2023-02-01T19:06:48.074Z,3.47
2023-02-01T19:11:50.910Z,3.55
2023-02-01T19:16:58.082Z,3.40
2023-02-01T19:22:00.969Z,1.88
2023-02-01T19:27:03.952Z,2.05
2023-02-01T19:32:08.301Z,2.30
2023-02-01T19:37:11.659Z,3.55
2023-02-01T19:42:14.837Z,3.28
2023-02-01T19:47:19.069Z,3.20
2023-02-01T19:52:21.932Z,2.55
2023-02-01T19:57:24.721Z,1.90
2023-02-01T20:02:28.767Z,3.03
2023-02-01T20:07:31.854Z,1.90
2023-02-01T20:12:34.985Z,2.88
2023-02-01T20:17:39.291Z,2.85
2023-02-01T20:22:45.053Z,1.67
2023-02-01T20:27:50.871Z,2.00
2023-02-01T20:32:55.105Z,5.07
2023-02-01T20:37:59.000Z,3.38
2023-02-01T20:43:01.884Z,3.00
2023-02-01T20:48:06.116Z,3.13
2023-02-01T20:53:12.682Z,3.15
2023-02-01T20:58:15.775Z,3.58
2023-02-01T21:03:20.562Z,2.78
2023-02-01T21:08:23.471Z,1.92
2023-02-01T21:13:27.316Z,1.75
2023-02-01T21:18:32.189Z,5.25
2023-02-01T21:23:44.825Z,7.00
2023-02-01T21:28:47.712Z,5.07
2023-02-01T21:33:52.044Z,3.40
2023-02-01T21:39:03.759Z,3.28
2023-02-01T21:44:06.965Z,3.38
2023-02-01T21:49:11.367Z,4.07
2023-02-01T21:54:14.837Z,7.10
2023-02-01T21:59:17.803Z,6.05
2023-02-01T22:04:22.074Z,3.13
2023-02-01T22:09:26.781Z,2.15
2023-02-01T22:14:29.682Z,2.78
2023-02-01T22:19:34.042Z,2.55
2023-02-01T22:24:36.975Z,3.50
2023-02-01T22:29:39.834Z,2.42
2023-02-01T22:34:44.598Z,3.25
2023-02-01T22:39:47.492Z,2.03
2023-02-01T22:44:50.466Z,3.38
2023-02-01T22:49:54.685Z,2.00
2023-02-01T22:54:57.599Z,1.85
2023-02-01T23:00:00.516Z,1.35
2023-02-01T23:05:05.288Z,1.60
2023-02-01T23:10:09.417Z,1.92
2023-02-01T23:15:12.829Z,2.63
2023-02-01T23:20:18.585Z,1.55
2023-02-01T23:25:21.617Z,1.58
2023-02-01T23:30:24.666Z,1.83
2023-02-01T23:35:29.933Z,2.00
2023-02-01T23:40:32.826Z,2.55
2023-02-01T23:45:35.744Z,2.17
2023-02-01T23:50:39.911Z,2.00
2023-02-01T23:55:42.738Z,2.47
